Time;durP1;ratioP1;P1;durP2;ratioP2;P2;SDS_P1;SDS_P2;PMS_P1;PMS_P2;Temp;Humidity;BMP_temperature;BMP_pressure;BME280_temperature;BME280_humidity;BME280_pressure;Samples;Min_cycle;Max_cycle;Signal;HPM_P1;HPM_P2
2021/08/13 00:00:44;;;;;;;14.07;12.63;;;18.30;1.00;;;;;;5030913;28;20699;-59
2021/08/13 00:03:10;;;;;;;14.40;13.20;;;18.30;1.00;;;;;;5030768;28;20674;-59
2021/08/13 00:05:35;;;;;;;13.97;12.70;;;18.30;1.00;;;;;;5028358;28;20943;-59
2021/08/13 00:08:01;;;;;;;14.53;13.30;;;18.30;1.00;;;;;;5029599;28;20192;-60
2021/08/13 00:10:26;;;;;;;14.13;12.83;;;18.30;1.00;;;;;;5031465;28;20185;-60
2021/08/13 00:12:52;;;;;;;14.53;13.33;;;18.30;1.00;;;;;;5030852;28;20178;-59
2021/08/13 00:15:17;;;;;;;14.10;12.80;;;18.30;1.00;;;;;;5031778;28;20660;-60
2021/08/13 00:17:43;;;;;;;14.73;13.43;;;18.30;1.00;;;;;;5029283;28;20637;-59
2021/08/13 00:20:09;;;;;;;14.53;13.13;;;18.30;1.00;;;;;;5032538;28;20202;-59
2021/08/13 00:22:35;;;;;;;13.57;12.47;;;18.30;1.00;;;;;;5031557;28;20187;-59
2021/08/13 00:25:00;;;;;;;13.97;12.77;;;18.30;1.00;;;;;;5029653;28;20811;-59
2021/08/13 00:27:26;;;;;;;12.67;11.57;;;18.30;1.00;;;;;;5029788;28;20184;-59
2021/08/13 00:29:51;;;;;;;13.63;12.53;;;18.20;1.00;;;;;;5028298;28;20191;-59
2021/08/13 00:32:17;;;;;;;13.77;12.57;;;18.20;1.00;;;;;;5031560;28;20186;-59
2021/08/13 00:34:42;;;;;;;13.50;12.40;;;18.20;1.00;;;;;;5029902;28;20590;-59
2021/08/13 00:37:08;;;;;;;13.40;12.30;;;18.20;1.00;;;;;;5031388;28;20309;-60
2021/08/13 00:39:34;;;;;;;14.53;13.33;;;18.20;1.00;;;;;;5029879;28;20261;-60
2021/08/13 00:41:59;;;;;;;13.20;12.20;;;18.20;1.00;;;;;;5031273;28;20273;-60
2021/08/13 00:44:25;;;;;;;14.23;13.03;;;18.10;1.00;;;;;;5027226;28;20647;-60
2021/08/13 00:46:50;;;;;;;13.73;12.43;;;18.00;1.00;;;;;;5031293;28;20194;-60
2021/08/13 00:49:16;;;;;;;13.97;12.67;;;18.00;1.00;;;;;;5028936;28;20186;-60
2021/08/13 00:51:44;;;;;;;14.37;13.17;;;18.00;1.00;;;;;;5030713;28;20281;-60
2021/08/13 00:54:10;;;;;;;13.70;12.60;;;18.00;1.00;;;;;;5030253;28;20295;-60
2021/08/13 00:56:35;;;;;;;14.33;12.93;;;18.00;1.00;;;;;;5030550;28;20591;-60
2021/08/13 00:59:03;;;;;;;13.97;12.87;;;17.90;1.00;;;;;;5029593;28;20432;-60
2021/08/13 01:01:32;;;;;;;13.43;12.33;;;17.90;1.00;;;;;;5028624;28;20221;-60
2021/08/13 01:03:57;;;;;;;14.90;13.60;;;17.90;1.00;;;;;;5030740;28;20939;-60
2021/08/13 01:06:23;;;;;;;14.10;12.90;;;17.90;1.00;;;;;;5026790;28;20540;-59
2021/08/13 01:08:48;;;;;;;14.20;13.00;;;17.90;1.00;;;;;;5029549;28;20183;-60
2021/08/13 01:11:27;;;;;;;14.30;13.00;;;17.90;1.50;;;;;;5029661;28;20193;-58
2021/08/13 01:13:58;;;;;;;14.43;13.07;;;17.80;5.40;;;;;;5028200;28;20271;-59
2021/08/13 01:16:26;;;;;;;16.47;15.00;;;17.80;5.20;;;;;;5027716;28;20461;-60
2021/08/13 01:19:01;;;;;;;13.10;11.90;;;17.80;6.60;;;;;;5030445;28;20419;-59
2021/08/13 01:21:32;;;;;;;13.23;12.03;;;17.80;7.00;;;;;;5029221;28;20537;-59
2021/08/13 01:24:18;;;;;;;15.00;13.50;;;17.80;6.80;;;;;;5030287;28;20473;-60
2021/08/13 01:27:05;;;;;;;14.40;13.10;;;17.70;10.60;;;;;;5028601;28;20493;-60
2021/08/13 01:29:51;;;;;;;14.57;13.37;;;17.70;13.50;;;;;;5030310;28;20517;-59
2021/08/13 01:32:30;;;;;;;14.60;13.37;;;17.70;13.10;;;;;;5028208;28;20956;-59
2021/08/13 01:35:05;;;;;;;13.90;12.60;;;17.70;12.60;;;;;;5028489;28;20461;-57
2021/08/13 01:37:33;;;;;;;14.30;13.00;;;17.70;13.00;;;;;;5027933;28;20997;-59
2021/08/13 01:40:01;;;;;;;13.40;12.30;;;17.70;10.80;;;;;;5024745;28;20430;-60
2021/08/13 01:42:28;;;;;;;13.80;12.70;;;17.70;13.40;;;;;;5028707;28;20840;-59
2021/08/13 01:44:56;;;;;;;14.63;13.37;;;17.60;16.20;;;;;;5028684;28;20435;-59
2021/08/13 01:47:23;;;;;;;14.80;13.40;;;17.60;17.80;;;;;;5028165;28;20434;-60
2021/08/13 01:49:50;;;;;;;14.40;13.10;;;17.60;19.20;;;;;;5028371;28;20788;-60
2021/08/13 01:52:17;;;;;;;13.70;12.37;;;17.60;19.80;;;;;;5028743;28;20435;-59
2021/08/13 01:54:44;;;;;;;13.73;12.60;;;17.60;21.20;;;;;;5040713;28;20464;-59
2021/08/13 01:57:11;;;;;;;13.93;12.60;;;17.60;20.90;;;;;;5030541;28;20519;-60
2021/08/13 01:59:37;;;;;;;14.30;13.00;;;17.60;20.30;;;;;;5028251;28;20480;-59
2021/08/13 02:02:03;;;;;;;13.77;12.43;;;17.60;20.70;;;;;;5028237;28;20534;-60
2021/08/13 02:04:29;;;;;;;14.63;13.37;;;17.50;20.00;;;;;;5029594;28;20827;-60
2021/08/13 02:06:55;;;;;;;13.87;12.67;;;17.50;19.10;;;;;;5028820;28;20183;-59
2021/08/13 02:09:21;;;;;;;13.57;12.27;;;17.50;20.80;;;;;;5029025;28;20437;-60
2021/08/13 02:11:46;;;;;;;13.83;12.60;;;17.50;19.10;;;;;;5028227;28;20183;-59
2021/08/13 02:14:13;;;;;;;13.47;12.27;;;17.50;17.20;;;;;;5029446;28;20485;-59
2021/08/13 02:16:42;;;;;;;14.27;12.80;;;17.50;15.40;;;;;;5027994;28;20221;-59
2021/08/13 02:19:31;;;;;;;14.37;13.17;;;17.50;17.00;;;;;;5027591;28;20463;-59
2021/08/13 02:21:57;;;;;;;15.10;13.70;;;17.50;20.60;;;;;;5024264;28;20433;-59
2021/08/13 02:24:22;;;;;;;14.50;13.20;;;17.50;18.60;;;;;;5028215;28;20466;-60
2021/08/13 02:26:48;;;;;;;13.83;12.60;;;17.40;20.00;;;;;;5028905;28;20467;-59
2021/08/13 02:29:14;;;;;;;14.93;13.57;;;17.40;22.70;;;;;;5027437;28;20185;-61
2021/08/13 02:31:40;;;;;;;13.93;12.73;;;17.30;26.50;;;;;;5029125;28;20182;-60
2021/08/13 02:34:05;;;;;;;14.40;13.10;;;17.30;32.60;;;;;;5027215;28;20195;-60
2021/08/13 02:36:43;;;;;;;14.67;13.47;;;17.30;30.20;;;;;;5029392;28;20651;-60
2021/08/13 02:39:23;;;;;;;14.63;13.43;;;17.30;29.60;;;;;;5026613;28;20210;-60
2021/08/13 02:41:50;;;;;;;14.87;13.33;;;17.20;30.30;;;;;;5028600;28;20419;-60
2021/08/13 02:44:18;;;;;;;14.00;12.80;;;17.20;33.40;;;;;;5027194;28;21119;-60
2021/08/13 02:46:59;;;;;;;14.73;13.43;;;17.20;36.30;;;;;;5029201;28;20416;-58
2021/08/13 02:49:27;;;;;;;14.10;12.90;;;17.20;38.80;;;;;;5027688;28;20545;-59
2021/08/13 02:51:57;;;;;;;13.97;12.77;;;17.20;34.90;;;;;;5028596;28;20555;-59
2021/08/13 02:54:27;;;;;;;14.73;13.13;;;17.20;34.80;;;;;;5028126;28;20503;-59
2021/08/13 02:56:55;;;;;;;13.80;12.70;;;17.20;35.80;;;;;;5028432;28;21010;-59
2021/08/13 02:59:24;;;;;;;14.67;13.27;;;17.20;37.90;;;;;;5028148;28;20435;-60
2021/08/13 03:01:52;;;;;;;13.70;12.50;;;17.20;36.50;;;;;;5026814;28;20457;-60
2021/08/13 03:04:19;;;;;;;14.00;12.70;;;17.20;36.70;;;;;;5027035;28;20438;-61
2021/08/13 03:06:46;;;;;;;14.50;13.20;;;17.10;37.20;;;;;;5029783;28;22506;-60
2021/08/13 03:09:12;;;;;;;14.30;13.10;;;17.10;39.00;;;;;;5032086;28;20432;-58
2021/08/13 03:11:39;;;;;;;14.37;13.17;;;17.10;42.60;;;;;;5030737;28;20472;-60
2021/08/13 03:14:06;;;;;;;14.23;12.93;;;17.10;41.00;;;;;;5030931;28;20821;-60
2021/08/13 03:16:33;;;;;;;14.43;13.13;;;17.10;37.80;;;;;;5032932;28;20449;-60
2021/08/13 03:18:59;;;;;;;14.50;13.20;;;17.10;35.30;;;;;;5031077;28;20442;-58
2021/08/13 03:21:25;;;;;;;14.80;13.50;;;17.10;37.50;;;;;;5031908;28;20920;-59
2021/08/13 03:23:53;;;;;;;13.63;12.43;;;17.10;35.20;;;;;;5031086;28;20492;-60
2021/08/13 03:26:18;;;;;;;13.63;12.53;;;17.10;35.40;;;;;;5031439;28;20449;-60
2021/08/13 03:28:44;;;;;;;13.93;12.63;;;17.10;35.20;;;;;;5030797;28;20905;-60
2021/08/13 03:31:09;;;;;;;14.63;13.27;;;17.20;33.30;;;;;;5030200;28;20191;-58
2021/08/13 03:33:35;;;;;;;13.93;12.73;;;17.20;33.50;;;;;;5031728;28;20227;-58
2021/08/13 03:36:01;;;;;;;13.40;12.20;;;17.20;31.70;;;;;;5031479;28;20218;-59
2021/08/13 03:38:27;;;;;;;14.07;12.87;;;17.20;33.70;;;;;;5030175;28;20923;-60
2021/08/13 03:40:52;;;;;;;15.23;13.80;;;17.20;30.90;;;;;;5031786;28;20217;-59
2021/08/13 03:43:18;;;;;;;14.50;13.20;;;17.10;32.80;;;;;;5031866;28;20202;-59
2021/08/13 03:45:44;;;;;;;13.93;12.73;;;17.20;32.30;;;;;;5030764;28;20652;-59
2021/08/13 03:48:10;;;;;;;13.33;12.23;;;17.30;24.90;;;;;;5031656;28;20253;-59
2021/08/13 03:50:35;;;;;;;14.47;13.27;;;17.30;21.00;;;;;;5032236;28;20412;-59
2021/08/13 03:53:01;;;;;;;14.40;13.10;;;17.30;23.10;;;;;;5030838;28;20190;-60
2021/08/13 03:55:26;;;;;;;14.03;12.60;;;17.30;21.50;;;;;;5033608;28;20204;-60
2021/08/13 03:57:52;;;;;;;15.07;13.77;;;17.30;25.00;;;;;;5030061;28;20176;-60
2021/08/13 04:00:18;;;;;;;14.23;12.90;;;17.20;27.00;;;;;;5034132;28;20239;-60
2021/08/13 04:02:44;;;;;;;13.63;12.53;;;17.20;26.10;;;;;;5034560;28;20187;-59
2021/08/13 04:05:10;;;;;;;13.93;12.73;;;17.20;26.00;;;;;;5026417;28;20194;-59
2021/08/13 04:07:36;;;;;;;13.37;12.30;;;17.20;27.20;;;;;;5021809;28;20504;-60
2021/08/13 04:10:02;;;;;;;13.83;12.63;;;17.10;30.80;;;;;;5022484;28;20423;-58
2021/08/13 04:12:28;;;;;;;14.27;13.07;;;17.10;30.00;;;;;;5022134;28;20192;-59
2021/08/13 04:14:53;;;;;;;13.17;12.07;;;17.10;30.40;;;;;;5022408;28;21275;-59
2021/08/13 04:17:19;;;;;;;13.67;12.43;;;17.10;32.00;;;;;;5020358;28;20260;-59
2021/08/13 04:19:44;;;;;;;13.73;12.43;;;17.10;30.70;;;;;;5020430;28;20191;-59
2021/08/13 04:22:10;;;;;;;13.93;12.57;;;17.10;32.00;;;;;;5022262;28;20638;-58
2021/08/13 04:24:37;;;;;;;13.80;12.50;;;17.10;31.40;;;;;;5021679;28;20214;-59
2021/08/13 04:27:04;;;;;;;14.47;13.13;;;17.10;30.30;;;;;;5022877;28;20299;-60
2021/08/13 04:29:29;;;;;;;13.50;12.30;;;17.10;32.70;;;;;;5021091;28;20471;-59
2021/08/13 04:31:55;;;;;;;13.53;12.33;;;17.10;34.10;;;;;;5021357;28;21013;-59
2021/08/13 04:34:21;;;;;;;13.53;12.13;;;17.20;32.00;;;;;;5021076;28;20222;-59
2021/08/13 04:36:47;;;;;;;13.97;12.67;;;17.20;24.40;;;;;;5020692;28;20693;-55
2021/08/13 04:39:12;;;;;;;13.43;12.03;;;17.30;20.00;;;;;;5024483;28;20440;-60
2021/08/13 04:41:38;;;;;;;13.00;11.90;;;17.30;18.50;;;;;;5031182;28;20316;-60
2021/08/13 04:44:04;;;;;;;13.70;12.40;;;17.40;18.40;;;;;;5030682;28;20187;-58
2021/08/13 04:46:30;;;;;;;14.37;12.97;;;17.40;20.60;;;;;;5030356;28;20409;-59
2021/08/13 04:48:55;;;;;;;13.97;12.70;;;17.40;18.80;;;;;;5030279;28;20422;-59
2021/08/13 04:51:21;;;;;;;14.27;12.97;;;17.50;12.00;;;;;;5030197;28;20202;-60
2021/08/13 04:53:46;;;;;;;12.70;11.50;;;17.50;11.10;;;;;;5030444;28;20191;-60
2021/08/13 04:56:12;;;;;;;13.60;12.30;;;17.40;10.40;;;;;;5030193;28;20788;-60
2021/08/13 04:58:37;;;;;;;13.57;12.33;;;17.40;10.60;;;;;;5030466;28;20185;-60
2021/08/13 05:01:03;;;;;;;13.83;12.63;;;17.40;14.00;;;;;;5028848;28;20223;-59
2021/08/13 05:03:29;;;;;;;13.37;12.17;;;17.50;10.90;;;;;;5030752;28;20183;-59
2021/08/13 05:05:55;;;;;;;13.17;11.97;;;17.40;16.30;;;;;;5028513;28;20193;-60
2021/08/13 05:08:21;;;;;;;13.47;12.30;;;17.50;17.20;;;;;;5029507;28;20198;-60
2021/08/13 05:10:46;;;;;;;13.60;12.40;;;17.50;16.70;;;;;;5030598;28;20414;-60
2021/08/13 05:13:12;;;;;;;13.77;12.47;;;17.40;17.30;;;;;;5030475;28;20192;-59
2021/08/13 05:15:38;;;;;;;13.87;12.67;;;17.40;13.20;;;;;;5029011;28;20203;-59
2021/08/13 05:18:06;;;;;;;15.43;12.73;;;17.50;11.40;;;;;;5029829;28;20519;-59
2021/08/13 05:20:31;;;;;;;12.93;11.73;;;17.50;6.60;;;;;;5030144;28;20183;-60
2021/08/13 05:22:57;;;;;;;13.93;12.67;;;17.40;10.00;;;;;;5028107;28;20444;-58
2021/08/13 05:25:26;;;;;;;12.80;11.73;;;17.50;6.60;;;;;;5030285;28;20191;-60
2021/08/13 05:27:51;;;;;;;13.47;12.30;;;17.50;5.50;;;;;;5028462;28;20198;-60
2021/08/13 05:30:17;;;;;;;14.27;12.87;;;17.50;10.50;;;;;;5028922;28;20431;-59
2021/08/13 05:32:44;;;;;;;13.43;12.20;;;17.50;14.20;;;;;;5027336;28;20220;-58
2021/08/13 05:35:11;;;;;;;12.90;11.87;;;17.50;16.60;;;;;;5016865;28;20211;-59
2021/08/13 05:37:38;;;;;;;14.17;12.77;;;17.60;9.90;;;;;;5030045;28;20477;-58
2021/08/13 05:40:04;;;;;;;13.70;12.40;;;17.60;4.40;;;;;;5030333;28;20408;-59
2021/08/13 05:42:30;;;;;;;13.03;11.90;;;17.70;2.10;;;;;;5025649;28;20504;-60
2021/08/13 05:44:56;;;;;;;12.90;11.70;;;17.80;1.00;;;;;;5030088;28;20431;-58
2021/08/13 05:47:22;;;;;;;12.53;11.53;;;17.90;1.00;;;;;;5028654;28;20426;-59
2021/08/13 05:49:47;;;;;;;12.23;11.23;;;18.00;1.00;;;;;;5029968;28;20186;-59
2021/08/13 05:52:13;;;;;;;12.30;11.30;;;18.10;1.00;;;;;;5029350;28;20320;-60
2021/08/13 05:54:38;;;;;;;13.00;11.83;;;18.10;1.00;;;;;;5029565;28;20219;-59
2021/08/13 05:57:04;;;;;;;12.23;11.20;;;18.20;1.00;;;;;;5028436;28;20268;-60
2021/08/13 05:59:30;;;;;;;12.00;10.90;;;18.20;1.00;;;;;;5029274;28;20196;-59
2021/08/13 06:01:55;;;;;;;11.90;10.90;;;18.30;1.00;;;;;;5027882;28;20229;-60
2021/08/13 06:04:21;;;;;;;12.70;11.60;;;18.40;1.00;;;;;;5029963;28;20267;-59
2021/08/13 06:06:46;;;;;;;12.23;11.13;;;18.50;1.00;;;;;;5028088;28;20256;-59
2021/08/13 06:09:12;;;;;;;11.90;10.73;;;18.50;1.00;;;;;;5029940;28;20618;-60
2021/08/13 06:11:38;;;;;;;11.83;10.83;;;18.60;1.00;;;;;;5029578;28;20179;-60
2021/08/13 06:14:03;;;;;;;12.17;11.07;;;18.80;1.00;;;;;;5029822;28;20644;-60
2021/08/13 06:16:29;;;;;;;11.10;10.20;;;18.90;1.00;;;;;;5027264;28;20183;-59
2021/08/13 06:18:54;;;;;;;11.67;10.67;;;18.90;1.00;;;;;;5028250;28;20719;-59
2021/08/13 06:21:20;;;;;;;11.77;10.73;;;19.00;1.00;;;;;;5029599;28;20162;-60
2021/08/13 06:23:45;;;;;;;13.30;11.00;;;19.10;1.00;;;;;;5028855;28;20297;-59
2021/08/13 06:26:11;;;;;;;13.93;10.13;;;19.20;1.00;;;;;;5029832;28;20943;-60
2021/08/13 06:28:38;;;;;;;11.00;10.00;;;19.30;1.00;;;;;;5029355;28;20700;-60
2021/08/13 06:31:04;;;;;;;10.50;9.70;;;19.40;1.00;;;;;;5028536;28;20431;-59
2021/08/13 06:33:29;;;;;;;11.47;10.47;;;19.50;1.00;;;;;;5028883;28;20233;-60
2021/08/13 06:35:55;;;;;;;11.87;9.83;;;19.60;1.00;;;;;;5028537;28;20474;-60
2021/08/13 06:38:21;;;;;;;10.50;9.50;;;19.80;1.00;;;;;;5029327;28;20166;-60
2021/08/13 06:40:46;;;;;;;10.20;9.30;;;19.90;1.00;;;;;;5027888;28;20182;-59
2021/08/13 06:43:12;;;;;;;10.30;9.40;;;20.10;1.00;;;;;;5024095;28;20183;-60
2021/08/13 06:45:38;;;;;;;10.17;9.20;;;20.20;99.90;;;;;;5027760;28;20190;-59
2021/08/13 06:48:03;;;;;;;10.27;9.47;;;20.40;99.90;;;;;;5028425;28;20182;-59
2021/08/13 06:50:29;;;;;;;11.23;10.20;;;20.50;97.70;;;;;;5027683;28;20190;-58
2021/08/13 06:52:55;;;;;;;9.63;8.83;;;20.60;1.00;;;;;;5028572;28;20761;-60
2021/08/13 06:55:21;;;;;;;9.77;9.00;;;20.70;1.00;;;;;;5027423;28;20199;-60
2021/08/13 06:57:46;;;;;;;9.50;8.70;;;20.80;75.30;;;;;;5030557;28;20240;-60
2021/08/13 07:00:13;;;;;;;10.10;8.70;;;20.90;1.00;;;;;;5022336;28;20230;-58
2021/08/13 07:02:39;;;;;;;10.27;9.47;;;21.10;1.00;;;;;;5027969;28;20179;-61
2021/08/13 07:05:06;;;;;;;10.20;9.40;;;21.20;1.00;;;;;;5026611;28;20444;-59
2021/08/13 07:07:31;;;;;;;10.97;9.90;;;21.30;1.00;;;;;;5027944;28;20426;-60
2021/08/13 07:09:58;;;;;;;10.23;9.40;;;21.30;1.00;;;;;;5027839;28;20436;-59
2021/08/13 07:12:23;;;;;;;10.10;9.30;;;21.40;99.90;;;;;;5026555;28;20580;-59
2021/08/13 07:14:49;;;;;;;10.73;9.80;;;21.50;99.90;;;;;;5027933;28;21443;-60
2021/08/13 07:17:14;;;;;;;9.60;8.90;;;21.60;1.00;;;;;;5026474;28;20187;-59
2021/08/13 07:19:40;;;;;;;10.87;9.97;;;21.70;1.00;;;;;;5028061;28;20171;-61
2021/08/13 07:22:05;;;;;;;9.87;9.07;;;21.80;1.00;;;;;;5027677;28;20193;-59
2021/08/13 07:24:31;;;;;;;11.20;10.10;;;21.90;99.90;;;;;;5029228;28;20316;-59
2021/08/13 07:26:57;;;;;;;10.13;9.33;;;22.00;1.00;;;;;;5028159;28;20190;-59
2021/08/13 07:29:24;;;;;;;10.90;10.00;;;22.10;1.00;;;;;;5026844;28;20183;-60
2021/08/13 07:31:50;;;;;;;9.87;9.13;;;22.30;1.00;;;;;;5027715;28;20453;-59
2021/08/13 07:34:15;;;;;;;10.07;9.30;;;22.50;99.90;;;;;;5025605;28;20465;-59
2021/08/13 07:36:41;;;;;;;9.57;8.93;;;22.60;60.30;;;;;;5026658;28;20452;-59
2021/08/13 07:39:07;;;;;;;9.80;9.07;;;22.60;99.90;;;;;;5026374;28;20270;-59
2021/08/13 07:41:32;;;;;;;9.60;8.90;;;22.80;99.90;;;;;;5027903;28;20177;-58
2021/08/13 07:43:58;;;;;;;10.30;9.40;;;22.90;1.00;;;;;;5026359;28;20669;-59
2021/08/13 07:46:23;;;;;;;9.50;8.80;;;23.20;99.90;;;;;;5026603;28;20943;-59
2021/08/13 07:48:49;;;;;;;10.10;9.20;;;23.30;1.00;;;;;;5025384;28;20636;-59
2021/08/13 07:51:14;;;;;;;10.40;9.50;;;23.40;1.00;;;;;;5026407;28;20191;-58
2021/08/13 07:53:40;;;;;;;10.33;9.43;;;23.50;99.90;;;;;;5029009;28;20196;-58
2021/08/13 07:56:06;;;;;;;10.30;9.40;;;23.60;99.90;;;;;;5031047;28;20310;-57
2021/08/13 07:58:31;;;;;;;9.37;8.67;;;23.70;1.00;;;;;;5030384;28;20268;-59
2021/08/13 08:00:57;;;;;;;10.80;9.83;;;23.90;99.90;;;;;;5030380;28;20281;-59
2021/08/13 08:03:22;;;;;;;10.00;9.10;;;24.00;1.00;;;;;;5030966;28;20170;-59
2021/08/13 08:05:48;;;;;;;9.87;9.00;;;24.10;99.90;;;;;;5030188;28;20656;-61
2021/08/13 08:08:13;;;;;;;10.50;9.60;;;24.20;99.90;;;;;;5031032;28;20522;-59
2021/08/13 08:10:45;;;;;;;11.20;10.30;;;24.30;99.90;;;;;;5028879;28;20313;-58
2021/08/13 08:13:11;;;;;;;9.23;8.63;;;24.40;88.60;;;;;;5030563;28;20191;-59
2021/08/13 08:15:36;;;;;;;10.40;9.63;;;24.60;99.90;;;;;;5030003;28;20827;-59
2021/08/13 08:18:02;;;;;;;9.97;9.17;;;24.80;1.00;;;;;;5030875;28;20209;-58
2021/08/13 08:20:28;;;;;;;9.60;8.80;;;24.90;1.00;;;;;;5027746;28;20198;-58
2021/08/13 08:22:53;;;;;;;9.87;9.17;;;25.10;1.00;;;;;;5030418;28;20186;-60
2021/08/13 08:25:19;;;;;;;10.40;9.60;;;25.30;1.00;;;;;;5029713;28;20213;-58
2021/08/13 08:27:44;;;;;;;9.50;8.80;;;25.40;1.00;;;;;;5029184;28;20865;-60
2021/08/13 08:30:11;;;;;;;10.67;9.77;;;25.60;99.90;;;;;;5029756;28;20195;-58
2021/08/13 08:32:36;;;;;;;9.73;9.00;;;25.90;99.90;;;;;;5029940;28;20196;-60
2021/08/13 08:35:02;;;;;;;9.40;8.70;;;26.10;99.90;;;;;;5030635;28;20465;-59
2021/08/13 08:37:28;;;;;;;10.57;9.77;;;26.30;99.90;;;;;;5030321;28;20176;-60
2021/08/13 08:39:53;;;;;;;10.80;9.80;;;26.40;1.00;;;;;;5036875;28;20643;-60
2021/08/13 08:42:20;;;;;;;9.73;9.13;;;26.70;1.00;;;;;;5029502;28;20172;-60
2021/08/13 08:44:47;;;;;;;10.67;9.77;;;26.90;1.00;;;;;;5029323;28;20188;-59
2021/08/13 08:47:16;;;;;;;9.43;8.83;;;27.10;4.20;;;;;;5030297;28;20454;-60
2021/08/13 08:49:43;;;;;;;10.70;9.90;;;27.40;1.00;;;;;;5029937;28;20809;-61
2021/08/13 08:52:11;;;;;;;9.83;9.23;;;27.80;1.00;;;;;;5029923;28;20583;-60
2021/08/13 08:54:38;;;;;;;9.70;9.00;;;28.10;1.00;;;;;;5030129;28;20498;-59
2021/08/13 08:57:06;;;;;;;10.40;9.50;;;28.30;1.00;;;;;;5029930;28;20827;-58
2021/08/13 08:59:32;;;;;;;10.37;9.67;;;28.50;1.00;;;;;;5030152;28;20504;-59
2021/08/13 09:01:59;;;;;;;10.50;9.80;;;28.70;1.00;;;;;;5028822;28;20473;-60
2021/08/13 09:04:25;;;;;;;11.23;10.23;;;29.20;99.90;;;;;;5029151;28;20415;-59
2021/08/13 09:06:51;;;;;;;10.00;9.40;;;29.60;99.90;;;;;;5029113;28;20433;-59
2021/08/13 09:09:17;;;;;;;10.40;9.80;;;30.00;99.90;;;;;;5029634;28;20424;-59
2021/08/13 09:11:44;;;;;;;10.97;10.17;;;30.60;99.90;;;;;;5029357;28;20926;-60
2021/08/13 09:14:12;;;;;;;10.50;9.80;;;31.10;99.90;;;;;;5029521;28;20727;-60
2021/08/13 09:16:39;;;;;;;9.80;8.93;;;31.80;99.90;;;;;;5030109;28;20425;-60
2021/08/13 09:19:07;;;;;;;10.47;9.80;;;32.60;99.90;;;;;;5029226;28;20496;-59
2021/08/13 09:21:35;;;;;;;9.73;9.03;;;33.30;99.90;;;;;;5027786;28;20457;-58
2021/08/13 09:24:10;;;;;;;10.10;9.27;;;34.00;99.90;;;;;;5028763;28;20901;-60
2021/08/13 09:26:40;;;;;;;10.70;9.90;;;34.70;99.90;;;;;;5028270;28;20508;-60
2021/08/13 09:29:06;;;;;;;10.40;9.63;;;35.30;99.90;;;;;;5027494;28;20853;-58
2021/08/13 09:31:38;;;;;;;10.80;10.07;;;35.80;99.90;;;;;;5029602;28;20465;-59
2021/08/13 09:34:13;;;;;;;10.27;9.67;;;36.20;99.90;;;;;;5028195;28;20677;-59
2021/08/13 09:36:50;;;;;;;9.53;9.03;;;36.80;99.90;;;;;;5028432;28;20429;-59
2021/08/13 09:39:23;;;;;;;10.57;9.87;;;36.80;99.90;;;;;;5029508;28;20782;-59
2021/08/13 09:41:59;;;;;;;10.03;9.17;;;37.10;99.90;;;;;;5028420;28;20425;-59
2021/08/13 09:44:40;;;;;;;10.60;9.90;;;37.20;99.90;;;;;;5029079;28;20412;-59
2021/08/13 09:47:13;;;;;;;9.50;8.90;;;37.90;99.90;;;;;;5026021;28;20956;-59
2021/08/13 09:49:41;;;;;;;10.60;9.60;;;38.20;99.90;;;;;;5028815;28;20410;-59
2021/08/13 09:52:18;;;;;;;9.57;9.00;;;38.60;99.90;;;;;;5015700;28;20495;-59
2021/08/13 09:54:48;;;;;;;10.30;9.70;;;38.90;99.90;;;;;;5028289;28;20484;-59
2021/08/13 09:57:15;;;;;;;9.80;9.20;;;38.90;99.90;;;;;;5028829;28;20788;-59
2021/08/13 10:00:04;;;;;;;10.33;9.60;;;39.00;99.90;;;;;;5027654;28;20425;-59
2021/08/13 10:02:35;;;;;;;10.93;10.23;;;39.10;99.90;;;;;;5029090;28;20417;-60
2021/08/13 10:05:14;;;;;;;10.57;10.07;;;39.60;99.90;;;;;;5023574;28;21011;-60
2021/08/13 10:07:49;;;;;;;11.07;10.37;;;39.50;99.90;;;;;;5028969;28;20413;-58
2021/08/13 10:10:25;;;;;;;11.17;10.47;;;39.70;99.90;;;;;;5028522;28;20441;-59
2021/08/13 10:12:50;;;;;;;10.80;10.20;;;39.60;99.90;;;;;;5023217;28;20476;-59
2021/08/13 10:15:40;;;;;;;10.90;10.20;;;39.30;99.90;;;;;;5028670;28;20893;-59
2021/08/13 10:18:10;;;;;;;11.20;10.40;;;39.40;99.90;;;;;;5027399;28;20213;-59
2021/08/13 10:20:38;;;;;;;10.00;9.40;;;39.60;99.90;;;;;;5028970;28;21164;-59
2021/08/13 10:23:04;;;;;;;10.50;9.90;;;40.20;99.90;;;;;;5028199;28;20462;-59
2021/08/13 10:25:30;;;;;;;10.87;10.20;;;40.20;99.90;;;;;;5029317;28;20448;-59
2021/08/13 10:27:56;;;;;;;11.10;10.50;;;40.40;99.90;;;;;;5028633;28;20294;-59
2021/08/13 10:30:23;;;;;;;11.87;11.27;;;39.90;99.90;;;;;;5028751;28;20210;-60
2021/08/13 10:32:56;;;;;;;11.00;10.30;;;39.90;99.90;;;;;;5027723;28;20438;-60
2021/08/13 10:35:28;;;;;;;11.20;10.40;;;40.00;99.90;;;;;;5027585;28;20536;-58
2021/08/13 10:37:54;;;;;;;10.33;9.73;;;39.70;99.90;;;;;;5027608;28;20744;-59
2021/08/13 10:40:20;;;;;;;11.97;11.17;;;39.40;99.90;;;;;;5027843;28;20422;-58
2021/08/13 10:42:48;;;;;;;11.57;10.93;;;39.50;99.90;;;;;;5027137;28;20769;-59
2021/08/13 10:45:20;;;;;;;10.53;9.93;;;39.80;99.90;;;;;;5027374;28;20436;-61
2021/08/13 10:48:10;;;;;;;10.27;9.67;;;40.30;99.90;;;;;;5027633;28;20499;-60
2021/08/13 10:50:37;;;;;;;11.17;10.37;;;40.50;99.90;;;;;;5027552;28;20426;-59
2021/08/13 10:53:03;;;;;;;11.50;10.80;;;41.00;99.90;;;;;;5025595;28;20465;-60
2021/08/13 10:55:42;;;;;;;12.00;11.20;;;41.30;99.90;;;;;;5022223;28;20975;-60
2021/08/13 10:58:09;;;;;;;10.97;10.07;;;41.10;99.90;;;;;;5025213;28;20194;-60
2021/08/13 11:01:02;;;;;;;11.50;10.77;;;41.30;99.90;;;;;;5025620;28;20465;-60
2021/08/13 11:03:28;;;;;;;11.53;10.90;;;41.40;99.90;;;;;;5027744;28;20433;-60
2021/08/13 11:05:58;;;;;;;11.87;11.10;;;41.60;99.90;;;;;;5026372;28;20422;-60
2021/08/13 11:08:47;;;;;;;12.03;11.30;;;41.90;99.90;;;;;;5028118;28;20186;-60
2021/08/13 11:11:13;;;;;;;11.73;10.93;;;42.00;99.90;;;;;;5025857;28;20429;-60
2021/08/13 11:13:41;;;;;;;12.10;11.40;;;41.70;99.90;;;;;;5027118;28;20429;-61
2021/08/13 11:16:42;;;;;;;12.53;11.90;;;41.90;99.90;;;;;;5027408;28;20480;-59
2021/08/13 11:19:11;;;;;;;12.27;11.40;;;42.60;99.90;;;;;;5005446;28;20492;-60
2021/08/13 11:21:49;;;;;;;12.20;11.50;;;43.00;99.90;;;;;;5020090;28;20444;-60
2021/08/13 11:24:16;;;;;;;12.10;11.43;;;43.20;99.90;;;;;;5023662;28;20421;-60
2021/08/13 11:26:51;;;;;;;11.40;10.70;;;42.60;99.90;;;;;;5027503;28;20435;-60
2021/08/13 11:32:04;;;;;;;12.20;11.30;;;42.80;99.90;;;;;;5028975;28;20880;-60
2021/08/13 11:34:53;;;;;;;12.03;11.33;;;42.70;99.90;;;;;;5030186;28;20543;-60
2021/08/13 11:37:34;;;;;;;11.00;10.40;;;42.70;99.90;;;;;;5018139;28;20457;-61
2021/08/13 11:40:25;;;;;;;11.70;11.00;;;42.30;99.90;;;;;;5030294;28;20428;-60
2021/08/13 11:42:55;;;;;;;11.70;11.00;;;42.30;99.90;;;;;;5028591;28;20436;-60
2021/08/13 11:45:32;;;;;;;12.07;11.47;;;43.10;99.90;;;;;;5027638;28;20428;-61
2021/08/13 11:47:58;;;;;;;11.60;10.90;;;43.00;99.90;;;;;;5030160;28;20417;-60
2021/08/13 11:50:26;;;;;;;11.87;11.17;;;43.30;99.90;;;;;;5029919;28;20912;-61
2021/08/13 11:52:52;;;;;;;12.73;11.83;;;43.10;99.90;;;;;;5028035;28;20558;-60
2021/08/13 11:55:23;;;;;;;12.77;11.97;;;43.40;99.90;;;;;;5029879;28;20468;-60
2021/08/13 11:57:53;;;;;;;12.20;11.50;;;44.00;99.90;;;;;;5030864;28;20171;-60
2021/08/13 12:00:20;;;;;;;14.77;13.63;;;43.90;99.90;;;;;;5031313;28;20542;-59
2021/08/13 12:02:47;;;;;;;14.50;13.20;;;43.50;98.30;;;;;;5030534;28;20422;-60
2021/08/13 12:05:13;;;;;;;13.83;12.93;;;41.60;97.90;;;;;;5030697;28;20417;-60
2021/08/13 12:07:40;;;;;;;12.93;11.93;;;40.90;98.00;;;;;;5028967;28;20422;-59
2021/08/13 12:10:13;;;;;;;13.40;12.40;;;40.50;97.70;;;;;;5029815;28;20440;-60
2021/08/13 12:12:40;;;;;;;13.53;12.43;;;40.40;98.40;;;;;;5029836;28;20432;-59
2021/08/13 12:15:07;;;;;;;13.73;12.83;;;40.40;97.40;;;;;;5029968;28;20578;-61
2021/08/13 12:17:33;;;;;;;14.53;13.53;;;40.70;98.70;;;;;;5028528;28;20430;-60
2021/08/13 12:20:01;;;;;;;15.50;14.40;;;41.10;97.10;;;;;;5029929;28;20780;-61
2021/08/13 12:22:29;;;;;;;15.70;14.70;;;41.00;96.30;;;;;;5029146;28;20183;-61
2021/08/13 12:24:55;;;;;;;15.47;14.50;;;41.10;95.50;;;;;;5023843;28;20443;-60
2021/08/13 12:27:26;;;;;;;15.60;14.50;;;41.70;95.70;;;;;;5029057;28;20417;-59
2021/08/13 12:29:52;;;;;;;14.63;13.73;;;42.10;94.80;;;;;;5030759;28;20182;-60
2021/08/13 12:32:17;;;;;;;15.40;14.40;;;41.60;95.80;;;;;;5028994;28;20730;-60
2021/08/13 12:34:43;;;;;;;15.37;14.40;;;40.70;95.30;;;;;;5030376;28;20214;-59
2021/08/13 12:37:13;;;;;;;15.60;14.40;;;40.30;95.10;;;;;;5025944;28;20186;-60
2021/08/13 12:39:42;;;;;;;14.90;14.00;;;39.70;94.60;;;;;;5028657;28;20183;-61